AirNav   Pilot Hours Calculator
 
 357 users online  

VA69 Armada/Hoffler Business Center Heliport
Chesapeake, Virginia, USA

GOING TO CHESAPEAKE?


FAA INFORMATION EFFECTIVE 25 FEBRUARY 2021

Location

FAA Identifier: VA69
Lat/Long: 36-47-19.5330N 076-13-34.7760W
36-47.325550N 076-13.579600W
36.7887592,-76.2263267
(estimated)
Elevation: 20 ft. / 6 m (estimated)
Variation: 09W (1985)
Time zone: UTC -5 (UTC -4 during Daylight Saving Time)
Zip code: 23320

Heliport Operations

Heliport use: Private use. Permission required prior to landing
Activation date: 05/1989
Control tower: no
ARTCC: WASHINGTON CENTER
FSS: LEESBURG FLIGHT SERVICE STATION
Attendance: UNATNDD
Segmented circle: no

Heliport Communications

WX ASOS at ORF (6 nm N): PHONE 757-460-9348
WX AWOS-3 at CPK (9 nm SW): 123.675 (757-204-4290)
WX ASOS at NTU (10 nm E): PHONE DSN 433-3619 or 757-433-3619
WX AWOS-3PT at PVG (11 nm W): 118.375 (757-465-2175)
WX AWOS-3 at SFQ (19 nm W): 119.375 (757-934-3942)

Nearby radio navigation aids

VOR radial/distance  VOR name  Freq  Var
ORFr198/6.3NORFOLK VORTAC116.9007W
ECGr003/32.0ELIZABETH CITY VOR/DME112.5007W
CCVr208/35.3CAPE CHARLES VORTAC112.2010W
FKNr092/38.1FRANKLIN VORTAC110.6009W
CVIr060/39.9COFIELD VORTAC114.6009W

 
NDB name  Hdg/Dist  Freq  Var  ID
INGLE168/3.332909WOR --- .-.
WOODVILLE016/31.725410WLLW .-.. .-.. .--
WAKEFIELD118/39.027411WAKQ .- -.- --.-

Heliport Services

Runway Information

Helipad H1

Dimensions: 30 x 30 ft. / 9 x 9 m
Surface: turf
Traffic pattern: leftleft

Heliport Ownership and Management from official FAA records

Ownership: Privately-owned
Owner: ARMADA/HOFFLER ENTERPRISES
860 GREENBRIER CIRCLE-STE 600
CHESAPEAKE, VA 23320
Phone 804-424-5722
Manager: ROBERT DOAK
860 GREENBRIER CIRCLE-STE 600
CHESAPEAKE, VA 23320
Phone 804-424-5722

Additional Remarks

A52-H1 75' BLDG 300' SW OF PAD; 75' BLDG 600' NW OF PAD; 100' PLINE 1500' N OF PAD.
FOR CD CTC NORFOLK APCH AT 757-464-0757.

Instrument Procedures

There are no published instrument procedures at VA69.

Some nearby airports with instrument procedures:

KORF - Norfolk International Airport (6 nm N)
KCPK - Chesapeake Regional Airport (9 nm SW)
KNGU - Norfolk Naval Station (Chambers Field) (9 nm N)
KNTU - Oceana Naval Air Station (Apollo Soucek Field) (10 nm E)
KPVG - Hampton RoadsExecutive Airport (11 nm W)
KLFI - Langley Air Force Base (19 nm N)
KSFQ - SuffolkExecutive Airport (19 nm W)
 
Loc | Ops | Rwys | IFR | FBO | Links
Com | Nav | Svcs | Stats | Notes
Area around VA69 (Armada/Hoffler Business Center Heliport)
 
Road maps at: MapQuest Bing Google
 
Aerial photo
No photo
 
Sectional chart

 
Airport distance calculator
Flying to Armada/Hoffler Business Center Heliport? Find the distance to fly.

From to VA69

Sunrise and sunset
Times for 09-Mar-2021
 Local
(UTC-5)
 Zulu
(UTC)
Morning civil twilight06:0011:00
Sunrise06:2611:26
Sunset18:0523:05
Evening civil twilight18:3123:31

Current date and time
Zulu (UTC)  09-Mar-2021 08:06:43
Local (UTC-5)  09-Mar-2021 03:06:43
 
METAR
KORF 
7nm N 
090751Z 21006KT 10SM CLR 02/M02 A3046 RMK AO2 SLP312 T00221022
KNFE 
7nm SE 
090756Z AUTO 00000KT 10SM CLR M01/M03 A3047 RMK AO2 SLP320 T10111028
KNGU 
8nm N 
090759Z 19004KT 10SM CLR 04/M04 A3046 RMK AO2 SLP315 T00391039 $
KCPK 
9nm SW 
090755Z AUTO 00000KT 10SM CLR M02/M03 A3048 RMK AO2 T10221030
KNTU 
10nm E 
090756Z 24005KT 10SM CLR 03/M03 A3046 RMK AO2 SLP316 T00331033
KPVG 
11nm W 
090756Z AUTO 00000KT 10SM CLR M05/M07 A3047 RMK AO2 SLP320 T10501067 FZRANO PNO $
KLFI 
18nm N 
090656Z AUTO 21005KT 10SM CLR 02/01 A3047 RMK AO2 SLPNO T00180009 $
KSFQ 
19nm W 
090755Z AUTO 00000KT 10SM CLR M01/M04 A3048 RMK AO2 T10141037
TAF
KORF 
7nm N 
090520Z 0906/1006 22006KT P6SM SCT250= TAF KSAV 090520Z 0906/1006 16003KT P6SM SKC
KNGU 
8nm N 
0823/0923 VRB05KT 9999 SKC QNH3044INS FM090900 22008KT 9999 SKC QNH3047INS FM091800 26008KT 9999 FEW260 QNH3038INS T03/0908Z T18/0918Z FN20002
KNTU 
10nm E 
0823/0923 VRB06KT 9999 SKC QNH3043INS FM091200 22007KT 9999 FEW250 QNH3045INS T04/0910Z T12/0918Z FN20051
KLFI 
18nm N 
082106Z 0821/0924 VRB06KT 9999 FEW210 QNH3040INS TX16/0918Z TN04/0912Z LAST NO AMDS AFT 0821 NEXT 0910
NOTAMs
Click for the latest NOTAMs
NOTAMs are issued by the DoD/FAA and will open in a separate window not controlled by AirNav.

 

 
 

Would you like to see your business listed on this page?

 If your business provides an interesting product or service to pilots, flight crews, aircraft, or users of the Armada/Hoffler Business Center Heliport, you should consider listing it here.  To start the listing process, click on the button below
 
Add a business
 

Other Pages about Armada/Hoffler Business Center Heliport

Update a link
 
Copyright © AirNav, LLC. All rights reserved. Privacy Policy  Contact